Time;durP1;ratioP1;P1;durP2;ratioP2;P2;SDS_P1;SDS_P2;PMS_P1;PMS_P2;Temp;Humidity;BMP_temperature;BMP_pressure;BME280_temperature;BME280_humidity;BME280_pressure;Samples;Min_cycle;Max_cycle;Signal;HPM_P1;HPM_P2
2023/04/26 00:02:28;;;;;;;15.27;13.77;;;6.70;99.90;;;7.49;100.00;97936.16;5120569;28;20218;-66
2023/04/26 00:05:02;;;;;;;16.57;13.63;;;6.70;99.90;;;7.43;100.00;97934.06;5117451;28;20267;-66
2023/04/26 00:07:36;;;;;;;15.97;13.30;;;6.70;99.90;;;7.39;100.00;97938.06;5119706;28;20201;-66
2023/04/26 00:10:11;;;;;;;16.53;13.53;;;6.60;99.90;;;7.38;100.00;97940.47;5116329;28;20303;-66
2023/04/26 00:12:45;;;;;;;14.90;13.27;;;6.60;99.90;;;7.36;100.00;97932.75;5113745;28;20581;-66
2023/04/26 00:15:18;;;;;;;17.77;14.20;;;6.60;99.90;;;7.31;100.00;97935.75;5113680;28;20204;-66
2023/04/26 00:17:51;;;;;;;14.87;13.00;;;6.50;99.90;;;7.25;100.00;97946.38;5115656;28;20243;-65
2023/04/26 00:20:24;;;;;;;14.03;12.63;;;6.50;99.90;;;7.18;100.00;97947.59;5116588;28;20303;-65
2023/04/26 00:22:57;;;;;;;13.47;12.03;;;6.40;99.90;;;7.16;100.00;97944.06;5117158;28;20220;-66
2023/04/26 00:25:30;;;;;;;15.17;13.73;;;6.40;99.90;;;7.12;100.00;97942.06;5114271;28;20216;-67
2023/04/26 00:28:05;;;;;;;17.10;13.47;;;6.40;99.90;;;7.08;100.00;97942.63;5118381;28;20224;-64
2023/04/26 00:30:41;;;;;;;17.47;12.90;;;6.30;99.90;;;7.01;100.00;97937.88;5117157;28;20196;-66
2023/04/26 00:33:13;;;;;;;14.80;13.23;;;6.30;99.90;;;6.97;100.00;97943.50;5109918;28;20196;-64
2023/04/26 00:35:46;;;;;;;14.97;13.47;;;6.30;99.90;;;6.94;100.00;97951.78;5115053;28;20213;-65
2023/04/26 00:38:19;;;;;;;15.10;13.47;;;6.20;99.90;;;6.90;100.00;97947.28;5111015;28;20238;-66
2023/04/26 00:40:52;;;;;;;15.70;14.00;;;6.10;99.90;;;6.88;100.00;97942.84;5116515;28;20208;-66
2023/04/26 00:43:27;;;;;;;17.27;15.17;;;6.10;99.90;;;6.80;100.00;97943.94;5115440;28;20232;-65
2023/04/26 00:46:00;;;;;;;19.77;15.63;;;6.10;99.90;;;6.77;100.00;97945.47;5115552;28;20204;-65
2023/04/26 00:48:34;;;;;;;16.67;15.00;;;6.00;99.90;;;6.75;100.00;97952.13;5113646;28;20236;-65
2023/04/26 00:51:07;;;;;;;17.00;15.17;;;6.00;99.90;;;6.74;100.00;97950.34;5115684;28;20973;-63
2023/04/26 00:53:40;;;;;;;20.53;15.97;;;6.00;99.90;;;6.72;100.00;97962.06;5113859;28;20292;-66
2023/04/26 00:56:13;;;;;;;18.30;15.43;;;6.00;99.90;;;6.65;100.00;97953.88;5111513;28;20219;-64
2023/04/26 00:58:47;;;;;;;17.47;15.57;;;5.90;99.90;;;6.67;100.00;97960.84;5115968;28;20220;-66
2023/04/26 01:01:21;;;;;;;16.20;14.50;;;5.90;99.90;;;6.65;100.00;97958.94;5116097;28;20596;-66
2023/04/26 01:03:54;;;;;;;20.20;14.97;;;5.90;99.90;;;6.65;100.00;97958.94;5116689;28;20703;-66
2023/04/26 01:06:33;;;;;;;17.67;15.17;;;5.90;99.90;;;6.63;100.00;97961.38;5116585;28;20208;-66
2023/04/26 01:09:08;;;;;;;18.70;16.23;;;5.90;99.90;;;6.64;100.00;97959.69;5117459;28;20221;-64
2023/04/26 01:11:43;;;;;;;22.97;17.40;;;5.90;99.90;;;6.60;100.00;97961.13;5117247;28;20204;-66
2023/04/26 01:14:18;;;;;;;20.23;15.70;;;5.80;99.90;;;6.63;100.00;97961.38;5125680;28;20279;-65
2023/04/26 01:16:51;;;;;;;22.73;17.73;;;5.90;99.90;;;6.63;100.00;97966.44;5116509;28;20215;-65
2023/04/26 01:19:24;;;;;;;20.90;16.60;;;5.90;99.90;;;6.64;100.00;97968.22;5110812;28;20229;-65
2023/04/26 01:21:57;;;;;;;19.80;16.23;;;5.90;99.90;;;6.67;100.00;97962.50;5116445;28;20579;-66
2023/04/26 01:24:35;;;;;;;19.50;16.83;;;5.90;99.90;;;6.64;100.00;97964.78;5115659;28;20235;-66
2023/04/26 01:27:08;;;;;;;21.17;16.80;;;5.90;99.90;;;6.62;100.00;97967.22;5115484;28;20205;-66
2023/04/26 01:29:41;;;;;;;23.60;18.23;;;5.90;99.90;;;6.58;100.00;97967.78;5115356;28;20780;-65
2023/04/26 01:32:14;;;;;;;26.57;18.33;;;5.80;99.90;;;6.55;100.00;97962.44;5116350;28;20215;-64
2023/04/26 01:34:47;;;;;;;21.27;17.33;;;5.80;99.90;;;6.59;100.00;97964.47;5116923;28;20228;-65
2023/04/26 01:37:20;;;;;;;24.93;16.97;;;5.80;99.90;;;6.53;100.00;97969.09;5114196;28;20211;-66
2023/04/26 01:39:55;;;;;;;19.33;17.03;;;5.80;99.90;;;6.54;100.00;97961.56;5124887;28;20216;-65
2023/04/26 01:42:28;;;;;;;23.43;16.67;;;5.80;99.90;;;6.56;100.00;97966.78;5114973;28;20228;-66
2023/04/26 01:45:01;;;;;;;48.10;17.33;;;5.80;99.90;;;6.50;100.00;97968.88;5112578;28;20563;-66
2023/04/26 01:47:34;;;;;;;24.77;16.30;;;5.70;99.90;;;6.44;100.00;97963.31;5125898;28;20201;-65
2023/04/26 01:50:10;;;;;;;16.50;14.73;;;5.60;99.90;;;6.43;100.00;97967.50;5118292;28;20736;-65
2023/04/26 01:52:43;;;;;;;17.73;15.23;;;5.60;99.90;;;6.39;100.00;97967.19;5119642;28;20208;-66
2023/04/26 01:55:18;;;;;;;19.97;16.50;;;5.60;99.90;;;6.36;100.00;97969.50;5117731;28;20763;-64
2023/04/26 01:57:51;;;;;;;16.53;14.70;;;5.60;99.90;;;6.38;100.00;97971.38;5114521;28;20355;-65
2023/04/26 02:00:24;;;;;;;23.53;16.23;;;5.60;99.90;;;6.34;100.00;97968.47;5118011;28;20205;-66
2023/04/26 02:02:57;;;;;;;31.43;16.00;;;5.60;99.90;;;6.35;100.00;97962.63;5117537;28;20239;-63
2023/04/26 02:05:30;;;;;;;20.03;16.07;;;5.50;99.90;;;6.29;100.00;97963.94;5117847;28;20947;-66
2023/04/26 02:08:05;;;;;;;44.10;16.77;;;5.50;99.90;;;6.28;100.00;97961.28;5115538;28;20224;-65
2023/04/26 02:10:39;;;;;;;21.10;15.93;;;5.50;99.90;;;6.17;100.00;97960.47;5118933;28;20215;-65
2023/04/26 02:13:12;;;;;;;26.37;15.50;;;5.30;99.90;;;5.98;100.00;97962.38;5118074;28;20211;-66
2023/04/26 02:15:47;;;;;;;23.70;15.63;;;5.20;99.90;;;5.96;100.00;97961.41;5120064;28;20200;-65
2023/04/26 02:18:21;;;;;;;21.10;16.83;;;5.20;99.90;;;5.91;100.00;97962.66;5112368;28;20225;-66
2023/04/26 02:20:54;;;;;;;17.27;15.07;;;5.20;99.90;;;5.94;100.00;97957.84;5121422;28;20738;-66
2023/04/26 02:23:27;;;;;;;18.00;14.67;;;5.20;99.90;;;5.93;100.00;97962.06;5118727;28;20232;-65
2023/04/26 02:26:02;;;;;;;17.20;14.27;;;5.10;99.90;;;5.90;100.00;97965.97;5117821;28;20209;-65
2023/04/26 02:28:35;;;;;;;19.33;15.77;;;5.10;99.90;;;5.87;100.00;97962.44;5117695;28;20228;-66
2023/04/26 02:31:08;;;;;;;19.37;15.37;;;5.00;99.90;;;5.91;100.00;97963.53;5116832;28;20204;-65
2023/04/26 02:33:41;;;;;;;21.13;17.53;;;5.10;99.90;;;5.97;100.00;97963.16;5116434;28;20215;-63
2023/04/26 02:36:14;;;;;;;20.67;14.20;;;5.20;99.90;;;5.89;100.00;97965.06;5116422;28;20204;-66
2023/04/26 02:38:47;;;;;;;20.43;14.43;;;5.00;99.90;;;5.88;100.00;97970.91;5117693;28;20720;-66
2023/04/26 02:41:22;;;;;;;21.30;16.67;;;5.00;99.90;;;5.68;100.00;97971.91;5116915;28;20209;-66
2023/04/26 02:43:55;;;;;;;20.47;14.87;;;4.90;99.90;;;5.65;100.00;97974.22;5111994;28;20220;-65
2023/04/26 02:46:28;;;;;;;17.83;14.90;;;4.90;99.90;;;5.65;100.00;97974.22;5117641;28;20846;-65
2023/04/26 02:49:01;;;;;;;22.80;16.63;;;4.80;99.90;;;5.66;100.00;97968.38;5115355;28;20266;-63
2023/04/26 02:51:34;;;;;;;22.27;17.03;;;4.90;99.90;;;5.66;100.00;97973.44;5115435;28;20213;-66
2023/04/26 02:54:07;;;;;;;18.70;15.97;;;4.90;99.90;;;5.69;100.00;97965.19;5118626;28;20203;-66
2023/04/26 02:56:41;;;;;;;25.30;16.33;;;4.90;99.90;;;5.67;100.00;97967.63;5115314;28;20209;-63
2023/04/26 02:59:14;;;;;;;30.03;17.87;;;4.90;99.90;;;5.65;100.00;97959.88;5114856;28;20224;-65
2023/04/26 03:01:47;;;;;;;21.27;15.13;;;4.90;99.90;;;5.50;100.00;97963.78;5117885;28;20679;-66
2023/04/26 03:04:20;;;;;;;44.40;14.77;;;4.70;99.90;;;5.39;100.00;97959.50;5117405;28;20267;-63
2023/04/26 03:06:53;;;;;;;19.10;14.50;;;4.60;99.90;;;5.34;100.00;97958.25;5113876;28;20205;-66
2023/04/26 03:09:26;;;;;;;20.73;15.53;;;4.60;99.90;;;5.35;100.00;97960.94;5117450;28;20243;-66
2023/04/26 03:12:02;;;;;;;19.50;14.93;;;4.70;99.90;;;5.35;100.00;97960.94;5117987;28;20243;-64
2023/04/26 03:14:35;;;;;;;17.77;14.30;;;4.60;99.90;;;5.38;100.00;97958.63;5117529;28;20220;-65
2023/04/26 03:17:08;;;;;;;19.17;15.30;;;4.70;99.90;;;5.52;100.00;97967.31;5116983;28;20216;-66
2023/04/26 03:19:41;;;;;;;36.23;15.53;;;4.80;99.90;;;5.49;100.00;97961.09;5111475;28;20224;-66
2023/04/26 03:22:16;;;;;;;42.80;16.77;;;4.80;99.90;;;5.54;100.00;97960.69;5116798;28;20251;-65
2023/04/26 03:24:49;;;;;;;21.70;15.77;;;4.80;99.90;;;5.56;100.00;97958.31;5114174;28;20599;-65
2023/04/26 03:27:24;;;;;;;23.97;15.73;;;4.80;99.90;;;5.58;100.00;97971.94;5117375;28;20209;-65
2023/04/26 03:29:57;;;;;;;59.33;17.80;;;4.80;99.90;;;5.53;100.00;97969.09;5117846;28;20694;-65
2023/04/26 03:32:30;;;;;;;21.97;17.27;;;4.90;99.90;;;5.51;100.00;97977.31;5115288;28;20205;-66
2023/04/26 03:35:04;;;;;;;50.27;18.40;;;4.90;99.90;;;5.58;100.00;97982.09;5115661;28;20204;-65
2023/04/26 03:37:38;;;;;;;33.27;17.57;;;4.90;99.90;;;5.57;100.00;97977.81;5116627;28;20209;-65
2023/04/26 03:40:12;;;;;;;25.17;18.80;;;4.90;99.90;;;5.63;100.00;97975.75;5118410;28;20262;-65
2023/04/26 03:42:47;;;;;;;26.73;17.20;;;4.90;99.90;;;5.61;100.00;97972.22;5117081;28;20208;-65
2023/04/26 03:45:20;;;;;;;34.07;18.30;;;4.90;99.90;;;5.62;100.00;97976.53;5113378;28;20220;-66
2023/04/26 03:47:53;;;;;;;24.40;17.37;;;4.90;99.90;;;5.62;100.00;97979.06;5116375;28;20617;-64
2023/04/26 03:50:26;;;;;;;31.83;17.07;;;4.90;99.90;;;5.63;100.00;97980.81;5112008;28;20205;-66
2023/04/26 03:52:59;;;;;;;31.50;16.80;;;4.80;99.90;;;5.54;100.00;97982.63;5119333;28;20205;-64
2023/04/26 03:55:32;;;;;;;25.37;16.53;;;4.70;99.90;;;5.53;100.00;97988.47;5118787;28;20209;-65
2023/04/26 03:58:07;;;;;;;28.43;16.73;;;4.70;99.90;;;5.51;100.00;97985.81;5117959;28;20466;-65
2023/04/26 04:00:41;;;;;;;21.23;16.33;;;4.80;99.90;;;5.57;100.00;97980.34;5111144;28;20545;-65
2023/04/26 04:03:14;;;;;;;29.73;18.43;;;4.80;99.90;;;5.65;100.00;97981.81;5114145;28;20683;-65
2023/04/26 04:05:47;;;;;;;22.47;16.67;;;4.90;99.90;;;5.63;100.00;97980.81;5113400;28;20277;-65
2023/04/26 04:08:20;;;;;;;24.03;16.83;;;4.80;99.90;;;5.57;100.00;97990.47;5115575;28;20221;-65
2023/04/26 04:10:53;;;;;;;23.23;15.57;;;4.70;99.90;;;5.50;100.00;97990.78;5111645;28;20216;-64
2023/04/26 04:13:28;;;;;;;25.13;16.50;;;4.70;99.90;;;5.41;100.00;97989.28;5110210;28;20217;-65
2023/04/26 04:16:01;;;;;;;22.40;16.53;;;4.60;99.90;;;5.41;100.00;97990.94;5113851;28;20678;-65
2023/04/26 04:18:34;;;;;;;18.53;14.93;;;4.60;99.90;;;5.23;100.00;97994.53;5113589;28;20608;-65
2023/04/26 04:21:07;;;;;;;21.67;15.17;;;4.50;99.90;;;5.28;100.00;97988.19;5114854;28;20244;-65
2023/04/26 04:23:41;;;;;;;21.80;16.23;;;4.50;99.90;;;5.35;100.00;97990.44;5113213;28;20212;-65
2023/04/26 04:26:14;;;;;;;20.57;15.40;;;4.50;99.90;;;5.40;100.00;97987.50;5110523;28;20308;-65
2023/04/26 04:28:48;;;;;;;22.43;16.70;;;4.60;99.90;;;5.30;100.00;97985.00;5115919;29;20723;-65
2023/04/26 04:31:21;;;;;;;22.40;16.30;;;4.60;99.90;;;5.35;100.00;97988.81;5116616;28;20200;-65
2023/04/26 04:33:55;;;;;;;57.57;18.00;;;4.60;99.90;;;5.33;100.00;97994.50;5115693;28;20583;-65
2023/04/26 04:36:28;;;;;;;19.77;15.53;;;4.60;99.90;;;5.38;100.00;97993.25;5117925;28;20634;-65
2023/04/26 04:39:02;;;;;;;23.83;16.33;;;4.70;99.90;;;5.43;100.00;97997.00;5114833;28;20225;-65
2023/04/26 04:41:35;;;;;;;27.03;18.00;;;4.80;99.90;;;5.44;100.00;97991.19;5110086;28;20542;-63
2023/04/26 04:44:10;;;;;;;20.23;15.90;;;4.80;99.90;;;5.39;100.00;97990.81;5114422;28;20204;-64
2023/04/26 04:46:43;;;;;;;18.50;15.30;;;4.70;99.90;;;5.39;100.00;97990.81;5116001;28;20218;-64
2023/04/26 04:49:18;;;;;;;22.43;17.03;;;4.70;99.90;;;5.48;100.00;97993.19;5116908;28;20232;-65
2023/04/26 04:51:51;;;;;;;30.57;18.53;;;4.80;99.90;;;5.48;100.00;97994.84;5118248;28;20680;-65
2023/04/26 04:54:24;;;;;;;20.53;16.13;;;4.80;99.90;;;5.46;100.00;97993.81;5118120;28;20211;-65
2023/04/26 04:56:58;;;;;;;34.23;16.63;;;4.70;99.90;;;5.46;100.00;97996.34;5111324;29;20197;-65
2023/04/26 04:59:32;;;;;;;28.27;17.03;;;4.70;99.90;;;5.51;100.00;98000.16;5117170;28;20237;-65
2023/04/26 05:02:05;;;;;;;20.57;15.97;;;4.80;99.90;;;5.55;100.00;98000.53;5116801;28;20215;-64
2023/04/26 05:04:38;;;;;;;30.93;16.67;;;4.80;99.90;;;5.63;100.00;97996.91;5118295;28;20553;-65
2023/04/26 05:07:14;;;;;;;24.57;15.17;;;4.90;99.90;;;5.69;100.00;98000.69;5118341;28;20687;-65
2023/04/26 05:09:47;;;;;;;26.20;15.57;;;4.90;99.90;;;5.69;100.00;98009.19;5112355;28;20233;-64
2023/04/26 05:12:20;;;;;;;36.63;16.17;;;4.90;99.90;;;5.71;100.00;98004.25;5116162;28;20200;-65
2023/04/26 05:14:55;;;;;;;20.40;15.47;;;4.80;99.90;;;5.81;100.00;98007.63;5112553;28;20201;-64
2023/04/26 05:17:29;;;;;;;26.30;16.00;;;4.90;99.90;;;5.78;100.00;98017.53;5113445;28;20214;-65
2023/04/26 05:20:06;;;;;;;28.37;16.30;;;4.80;99.90;;;5.73;100.00;98018.81;5115890;28;20208;-65
2023/04/26 05:22:40;;;;;;;25.10;15.87;;;4.80;99.90;;;5.72;100.00;98027.16;5118289;28;20200;-68
2023/04/26 05:25:13;;;;;;;26.37;16.27;;;4.80;99.90;;;5.74;100.00;98029.84;5118334;28;20315;-66
2023/04/26 05:27:46;;;;;;;24.80;16.13;;;4.80;99.90;;;5.77;100.00;98025.00;5115264;28;20599;-64
2023/04/26 05:30:21;;;;;;;25.30;16.07;;;4.80;99.90;;;5.92;100.00;98037.97;5118563;28;20663;-65
2023/04/26 05:32:55;;;;;;;31.73;16.33;;;4.90;99.90;;;5.65;100.00;98037.59;5114660;28;20212;-64
2023/04/26 05:35:28;;;;;;;19.27;15.57;;;4.70;99.90;;;5.81;100.00;98037.16;5111822;28;20204;-64
2023/04/26 05:38:01;;;;;;;23.37;15.23;;;4.80;99.90;;;5.79;100.00;98044.66;5113272;28;20229;-67
2023/04/26 05:40:34;;;;;;;22.83;16.27;;;4.90;99.90;;;5.81;100.00;98043.13;5117134;28;20580;-64
2023/04/26 05:43:07;;;;;;;22.83;17.10;;;4.90;99.90;;;5.81;100.00;98045.66;5114767;28;20204;-67
2023/04/26 05:45:51;;;;;;;23.20;18.07;;;4.90;99.90;;;5.88;100.00;98042.81;5118345;28;20220;-64
2023/04/26 05:48:25;;;;;;;30.13;18.03;;;4.90;99.90;;;5.96;100.00;98048.53;5114761;28;20236;-65
2023/04/26 05:50:58;;;;;;;25.43;17.53;;;4.90;99.90;;;6.00;100.00;98053.06;5118901;28;20854;-67
2023/04/26 05:53:32;;;;;;;35.87;18.13;;;5.00;99.90;;;5.73;100.00;98049.25;5113602;28;20205;-64
2023/04/26 05:56:06;;;;;;;19.30;17.20;;;4.90;99.90;;;5.72;100.00;98052.53;5113716;28;20206;-64
2023/04/26 05:58:39;;;;;;;20.17;16.57;;;4.90;99.90;;;5.85;100.00;98052.72;5116717;28;20228;-64
2023/04/26 06:01:13;;;;;;;37.47;17.60;;;4.90;99.90;;;6.12;100.00;98050.59;5114734;28;20216;-64
2023/04/26 06:03:46;;;;;;;18.83;14.50;;;5.10;99.90;;;6.16;100.00;98057.69;5118016;28;20439;-64
2023/04/26 06:06:20;;;;;;;18.00;14.70;;;5.10;99.90;;;6.45;100.00;98056.50;5117360;28;20331;-66
2023/04/26 06:08:53;;;;;;;23.83;16.17;;;5.30;99.90;;;6.34;100.00;98058.19;5113824;28;20225;-64
2023/04/26 06:11:26;;;;;;;19.20;15.23;;;5.30;99.90;;;6.19;100.00;98052.84;5117657;28;20223;-65
2023/04/26 06:13:59;;;;;;;23.47;15.00;;;5.20;99.90;;;6.11;100.00;98058.97;5118020;28;20205;-65
2023/04/26 06:16:34;;;;;;;20.50;16.13;;;5.20;99.90;;;6.19;100.00;98060.47;5115727;28;20660;-64
2023/04/26 06:19:07;;;;;;;21.33;14.83;;;5.20;99.90;;;6.15;100.00;98055.00;5110408;28;20290;-64
2023/04/26 06:21:40;;;;;;;16.97;14.47;;;5.20;99.90;;;6.44;100.00;98064.84;5118005;28;20575;-65
2023/04/26 06:24:13;;;;;;;16.10;14.33;;;5.40;99.90;;;6.39;100.00;98064.53;5117293;28;20205;-65
2023/04/26 06:26:46;;;;;;;16.43;14.73;;;5.40;99.90;;;6.39;100.00;98056.03;5116685;28;20424;-64
2023/04/26 06:29:20;;;;;;;25.23;14.47;;;5.30;99.90;;;6.57;100.00;98065.03;5117284;28;20236;-64
2023/04/26 06:31:54;;;;;;;17.07;14.47;;;5.50;99.90;;;6.42;100.00;98059.69;5112991;28;20681;-65
2023/04/26 06:34:27;;;;;;;18.90;15.37;;;5.40;99.90;;;6.63;100.00;98060.41;5109125;28;20200;-64
2023/04/26 06:37:00;;;;;;;18.47;14.87;;;5.50;99.90;;;6.37;100.00;98060.97;5122229;28;20201;-69
2023/04/26 06:39:33;;;;;;;17.10;15.30;;;5.40;99.90;;;6.54;100.00;98064.78;5115650;28;20271;-64
2023/04/26 06:42:06;;;;;;;18.00;15.60;;;5.50;99.90;;;6.66;100.00;98065.72;5115448;28;20758;-66
2023/04/26 06:44:39;;;;;;;17.53;15.20;;;5.60;99.90;;;6.76;100.00;98064.75;5115941;28;20299;-64
2023/04/26 06:47:14;;;;;;;17.40;15.07;;;5.70;99.90;;;6.77;100.00;98072.47;5112984;28;20225;-66
2023/04/26 06:49:47;;;;;;;16.57;14.87;;;5.70;99.90;;;6.91;100.00;98072.63;5107819;28;20718;-65
2023/04/26 06:52:20;;;;;;;18.40;15.57;;;5.80;99.90;;;7.16;100.00;98073.69;5113544;28;20201;-63
2023/04/26 06:54:53;;;;;;;18.07;16.23;;;6.00;99.90;;;7.15;100.00;98084.63;5111989;28;20712;-65
2023/04/26 06:57:29;;;;;;;18.80;16.80;;;6.00;99.90;;;7.28;100.00;98073.69;5113369;28;20507;-65
2023/04/26 07:00:04;;;;;;;20.50;17.93;;;6.10;99.90;;;7.41;100.00;98075.47;5115568;28;20205;-64
2023/04/26 07:02:40;;;;;;;19.93;17.37;;;6.30;99.90;;;7.59;100.00;98075.94;5120781;28;20204;-63
2023/04/26 07:05:14;;;;;;;19.63;17.50;;;6.50;99.90;;;7.84;100.00;98069.28;5111391;28;20629;-63
2023/04/26 07:07:48;;;;;;;21.07;18.77;;;6.60;99.90;;;8.12;100.00;98066.97;5117339;28;20321;-64
2023/04/26 07:10:21;;;;;;;19.53;17.43;;;6.80;99.90;;;8.43;100.00;98065.72;5112741;28;20220;-66
2023/04/26 07:12:54;;;;;;;21.27;18.57;;;7.10;99.90;;;9.06;100.00;98057.19;5120506;28;20279;-66
2023/04/26 07:15:28;;;;;;;20.10;18.00;;;7.70;99.90;;;9.76;100.00;98053.19;5120200;28;20213;-64
2023/04/26 07:18:03;;;;;;;18.03;16.20;;;8.20;99.90;;;10.17;95.48;98063.44;5120052;28;20224;-64
2023/04/26 07:20:36;;;;;;;17.27;15.35;;;8.50;99.90;;;10.79;87.41;98056.19;5120487;28;20216;-65
2023/04/26 07:23:09;;;;;;;17.67;15.88;;;9.00;99.90;;;10.95;82.75;98054.53;5120736;28;20579;-64
2023/04/26 07:25:42;;;;;;;17.05;15.40;;;8.90;99.90;;;11.12;81.50;98048.72;5113893;28;20810;-65
2023/04/26 07:28:15;;;;;;;16.75;14.95;;;8.90;99.90;;;11.20;82.93;98042.34;5115877;28;20818;-64
2023/04/26 07:30:48;;;;;;;16.20;14.18;;;8.90;99.90;;;11.62;80.60;98032.78;5116660;28;20205;-65
2023/04/26 07:33:22;;;;;;;14.70;13.25;;;9.30;99.90;;;12.18;80.15;98037.56;5110269;28;20691;-64
2023/04/26 07:35:57;;;;;;;14.20;11.55;;;9.70;99.90;;;12.27;71.81;98041.44;5114248;28;20287;-64
2023/04/26 07:38:30;;;;;;;13.48;12.07;;;9.90;99.90;;;12.70;70.39;98036.00;5119415;28;20228;-65
2023/04/26 07:41:04;;;;;;;13.63;12.23;;;10.00;99.90;;;13.12;66.51;98033.84;5119592;28;20662;-64
2023/04/26 07:43:38;;;;;;;11.85;10.65;;;10.40;99.90;;;13.49;67.91;98024.59;5120113;28;20584;-64
2023/04/26 07:46:11;;;;;;;11.50;10.40;;;11.00;99.90;;;12.77;63.78;98036.41;5119746;28;20228;-65
2023/04/26 07:48:45;;;;;;;9.20;8.00;;;10.70;99.90;;;12.55;60.77;98024.13;5115815;28;20224;-66
2023/04/26 07:51:18;;;;;;;9.68;8.60;;;10.50;99.90;;;12.91;67.04;98026.84;5116031;28;20204;-65
2023/04/26 07:53:52;;;;;;;8.20;7.30;;;11.00;99.90;;;13.02;68.16;98028.25;5112565;29;20197;-64
2023/04/26 07:56:25;;;;;;;5.05;4.55;;;11.40;99.90;;;12.98;58.90;98026.31;5119135;28;20216;-66
2023/04/26 07:58:58;;;;;;;4.95;4.50;;;11.40;99.90;;;12.84;59.14;98037.56;5118894;28;20594;-64
2023/04/26 08:01:31;;;;;;;5.22;3.88;;;11.20;99.90;;;12.73;57.97;98036.16;5118689;28;20213;-65
2023/04/26 08:04:06;;;;;;;7.20;6.50;;;11.20;99.90;;;12.98;59.84;98036.59;5119508;28;20211;-64
2023/04/26 08:06:43;;;;;;;6.80;6.05;;;11.70;99.90;;;13.16;60.38;98026.38;5119489;28;20228;-64
2023/04/26 08:09:17;;;;;;;8.52;6.13;;;11.80;99.90;;;13.31;59.99;98036.56;5119910;28;20226;-65
2023/04/26 08:11:50;;;;;;;7.75;6.22;;;12.20;99.90;;;13.20;59.75;98027.41;5119148;28;20224;-64
2023/04/26 08:14:23;;;;;;;6.70;6.00;;;12.30;99.90;;;13.34;58.43;98031.56;5119263;28;20688;-64
2023/04/26 08:16:56;;;;;;;6.70;6.00;;;12.30;99.90;;;13.35;59.60;98035.88;5119538;28;20205;-65
2023/04/26 08:19:32;;;;;;;7.15;6.45;;;12.30;99.90;;;13.22;56.03;98031.81;5118913;28;20224;-64
2023/04/26 08:22:05;;;;;;;6.55;5.95;;;12.10;99.90;;;12.98;58.79;98031.47;5119868;28;20660;-65
2023/04/26 08:24:38;;;;;;;7.47;6.70;;;11.90;99.90;;;13.36;57.64;98019.66;5113247;28;20217;-64
2023/04/26 08:27:11;;;;;;;6.53;5.88;;;12.30;99.90;;;13.52;54.93;98027.31;5118660;28;20228;-65
2023/04/26 08:29:44;;;;;;;6.53;5.68;;;12.80;99.90;;;13.70;57.15;98029.00;5119260;28;20252;-64
2023/04/26 08:32:17;;;;;;;6.53;5.78;;;12.60;99.90;;;13.76;55.54;98037.00;5119322;28;20211;-65
2023/04/26 08:34:52;;;;;;;6.55;5.57;;;12.60;99.90;;;13.89;54.48;98033.31;5117898;28;20205;-64
2023/04/26 08:37:25;;;;;;;8.63;5.53;;;13.00;99.90;;;14.08;51.94;98027.31;5119362;28;20203;-63
2023/04/26 08:40:01;;;;;;;6.50;5.43;;;13.40;98.70;;;13.84;50.08;98020.25;5119459;28;20588;-63
2023/04/26 08:42:39;;;;;;;6.07;5.47;;;13.20;97.20;;;13.75;51.86;98025.84;5119323;28;20219;-66
2023/04/26 08:45:12;;;;;;;6.00;5.20;;;13.00;97.80;;;13.78;49.90;98025.09;5112871;28;20204;-66
2023/04/26 08:47:49;;;;;;;6.07;5.47;;;12.90;97.40;;;13.84;52.79;98027.97;5117524;28;20224;-65
2023/04/26 08:50:24;;;;;;;7.47;5.35;;;13.00;99.30;;;13.99;53.75;98032.94;5118957;28;20208;-65
2023/04/26 08:52:57;;;;;;;6.18;4.45;;;13.10;99.00;;;14.14;49.99;98025.94;5119647;28;20204;-65
2023/04/26 08:55:30;;;;;;;6.63;4.97;;;13.10;96.90;;;14.22;51.93;98026.28;5118160;28;20295;-64
2023/04/26 08:58:05;;;;;;;6.22;4.90;;;13.30;99.00;;;14.24;50.47;98032.38;5115348;28;20568;-64
2023/04/26 09:00:38;;;;;;;7.00;4.50;;;13.20;97.10;;;14.52;52.98;98026.81;5118671;28;20208;-64
2023/04/26 09:03:12;;;;;;;5.50;4.95;;;13.60;99.00;;;14.70;48.73;98024.16;5117517;28;20201;-64
2023/04/26 09:05:47;;;;;;;6.78;5.20;;;13.60;95.50;;;14.66;47.97;98026.53;5117145;28;20648;-65
2023/04/26 09:08:20;;;;;;;5.63;4.93;;;13.50;96.10;;;14.86;51.41;98031.72;5118899;29;20247;-64
2023/04/26 09:10:53;;;;;;;4.95;4.45;;;13.70;98.60;;;15.04;48.57;98023.91;5115147;28;20209;-66
2023/04/26 09:13:29;;;;;;;5.68;4.13;;;13.90;95.90;;;14.98;46.36;98025.34;5115524;28;20213;-64
2023/04/26 09:16:02;;;;;;;5.93;4.45;;;13.80;94.90;;;14.86;47.37;98026.59;5116950;28;20676;-66
2023/04/26 09:18:50;;;;;;;5.00;4.40;;;13.50;96.00;;;14.56;48.56;98026.13;5117870;28;20227;-64
2023/04/26 09:21:25;;;;;;;5.53;4.45;;;13.00;96.60;;;14.51;49.70;98029.28;5114278;28;20578;-64
2023/04/26 09:24:00;;;;;;;5.95;4.70;;;13.10;97.40;;;14.22;48.83;98021.13;5118706;28;20203;-64
2023/04/26 09:26:33;;;;;;;7.05;4.55;;;13.00;96.50;;;14.08;47.72;98025.66;5115897;28;20204;-65
2023/04/26 09:29:15;;;;;;;5.68;4.55;;;12.90;95.90;;;13.90;49.84;98023.09;5119373;28;20707;-63
2023/04/26 09:31:49;;;;;;;4.63;4.22;;;12.70;97.60;;;13.79;46.90;98015.72;5116999;28;20215;-65
2023/04/26 09:34:22;;;;;;;5.45;4.53;;;12.60;95.00;;;13.58;50.31;98010.44;5112036;28;20216;-65
2023/04/26 09:36:57;;;;;;;6.75;5.15;;;12.50;97.10;;;13.67;51.21;98016.88;5115521;28;20274;-65
2023/04/26 09:39:32;;;;;;;6.25;4.80;;;12.40;98.10;;;13.77;50.08;98007.94;5113570;28;20232;-65
2023/04/26 09:42:06;;;;;;;6.15;4.90;;;12.50;97.70;;;13.78;48.36;98001.97;5114254;28;20209;-65
2023/04/26 09:44:40;;;;;;;5.90;5.20;;;12.70;96.10;;;13.51;50.45;97999.88;5117486;28;20593;-64
2023/04/26 09:47:13;;;;;;;6.25;4.55;;;12.70;96.70;;;13.38;49.77;98000.09;5116062;28;20238;-65
2023/04/26 09:49:49;;;;;;;5.05;4.45;;;12.50;96.00;;;13.73;49.44;98003.44;5118336;28;20620;-65
2023/04/26 09:52:23;;;;;;;7.43;4.63;;;12.90;96.20;;;13.80;49.98;97997.81;5115844;28;20679;-65
2023/04/26 09:54:56;;;;;;;4.65;4.28;;;13.10;96.20;;;13.90;50.00;97997.41;5115514;28;20201;-65
2023/04/26 09:57:30;;;;;;;6.28;4.20;;;13.10;95.40;;;13.73;47.54;98001.78;5115012;28;20204;-65
2023/04/26 10:00:11;;;;;;;4.90;4.28;;;12.80;94.50;;;13.93;46.95;97997.53;5114435;28;20740;-65
2023/04/26 10:02:44;;;;;;;4.82;4.00;;;13.00;94.00;;;13.81;49.17;97993.53;5111568;28;20209;-65
2023/04/26 10:05:17;;;;;;;5.50;4.15;;;12.90;95.90;;;13.81;49.19;97989.28;5123060;28;20631;-65
2023/04/26 10:07:52;;;;;;;5.18;3.72;;;13.00;95.60;;;13.98;48.55;97990.94;5121370;28;20524;-65
2023/04/26 10:10:26;;;;;;;3.92;3.63;;;12.90;94.60;;;14.01;44.38;97991.91;5117842;28;20214;-64
2023/04/26 10:12:59;;;;;;;4.78;3.90;;;12.80;93.20;;;13.88;47.73;97986.19;5116194;28;20212;-65
2023/04/26 10:15:33;;;;;;;4.90;4.40;;;12.80;94.90;;;13.74;50.76;97992.38;5119673;28;20569;-65
2023/04/26 10:18:06;;;;;;;4.72;4.10;;;12.70;97.10;;;13.64;52.57;97985.91;5114887;28;20244;-65
2023/04/26 10:20:41;;;;;;;6.45;4.10;;;12.60;97.20;;;13.43;52.01;97983.22;5120981;28;20750;-65
2023/04/26 10:23:20;;;;;;;5.85;4.72;;;12.40;98.30;;;13.41;51.63;97984.84;5112976;28;20201;-65
2023/04/26 10:25:55;;;;;;;5.20;4.20;;;12.40;97.70;;;13.51;50.63;97988.75;5115587;28;20204;-66
2023/04/26 10:28:55;;;;;;;5.55;3.92;;;12.50;97.20;;;13.56;49.78;97986.38;5118969;28;20232;-65
2023/04/26 10:32:07;;;;;;;4.43;3.75;;;12.60;97.00;;;13.80;50.75;97990.09;5119654;28;20591;-64
2023/04/26 10:34:40;;;;;;;4.90;3.88;;;12.80;96.80;;;13.85;50.92;97986.06;5118675;28;20205;-65
2023/04/26 10:37:15;;;;;;;7.10;4.03;;;12.90;96.70;;;13.84;49.87;97981.72;5117306;28;20212;-65
2023/04/26 10:39:49;;;;;;;3.88;3.47;;;12.70;96.00;;;13.74;50.26;97974.41;5119504;28;20227;-65
2023/04/26 10:42:25;;;;;;;4.53;3.50;;;12.70;96.60;;;13.82;51.03;97979.88;5121276;28;20212;-65
2023/04/26 10:45:01;;;;;;;4.18;3.45;;;12.80;97.60;;;13.83;51.29;97972.25;5116600;28;20620;-65